createdAt,value
2022-07-27T00:00:06.632Z,71.21
2022-07-27T00:01:09.420Z,71.00
2022-07-27T00:02:12.372Z,70.83
2022-07-27T00:03:15.093Z,70.60
2022-07-27T00:05:30.693Z,70.18
2022-07-27T00:06:34.106Z,70.13
2022-07-27T00:07:36.685Z,69.95
2022-07-27T00:08:39.999Z,69.79
2022-07-27T00:09:42.574Z,69.71
2022-07-27T00:10:45.572Z,69.74
2022-07-27T00:11:48.252Z,69.74
2022-07-27T00:12:51.046Z,69.61
2022-07-27T00:13:53.717Z,69.65
2022-07-27T00:14:56.434Z,69.62
2022-07-27T00:15:59.174Z,69.57
2022-07-27T00:17:02.096Z,69.87
2022-07-27T00:18:05.003Z,69.90
2022-07-27T00:19:09.350Z,69.97
2022-07-27T00:20:13.760Z,69.96
2022-07-27T00:21:16.448Z,70.08
2022-07-27T00:22:19.129Z,70.12
2022-07-27T00:23:21.825Z,70.51
2022-07-27T00:24:24.400Z,70.64
2022-07-27T00:25:27.178Z,70.86
2022-07-27T00:26:31.666Z,70.96
2022-07-27T00:27:34.437Z,71.00
2022-07-27T00:28:37.017Z,71.16
2022-07-27T00:29:39.601Z,71.27
2022-07-27T00:30:42.352Z,71.33
2022-07-27T00:31:45.216Z,71.22
2022-07-27T00:32:47.894Z,71.39
2022-07-27T00:33:50.599Z,71.40
2022-07-27T00:34:53.266Z,71.00
2022-07-27T00:35:55.863Z,70.99
2022-07-27T00:36:59.050Z,70.76
2022-07-27T00:38:01.751Z,70.52
2022-07-27T00:39:04.458Z,70.42
2022-07-27T00:40:08.566Z,70.30
2022-07-27T00:41:11.301Z,69.94
2022-07-27T00:42:14.088Z,69.95
2022-07-27T00:43:16.766Z,69.65
2022-07-27T00:44:26.712Z,69.59
2022-07-27T00:45:29.437Z,69.47
2022-07-27T00:46:33.766Z,69.35
2022-07-27T00:47:36.483Z,69.27
2022-07-27T00:48:39.117Z,69.26
2022-07-27T00:49:42.252Z,69.32
2022-07-27T00:50:46.042Z,69.19
2022-07-27T00:51:49.435Z,69.26
2022-07-27T00:52:52.316Z,69.41
2022-07-27T00:53:55.120Z,69.59
2022-07-27T00:54:58.105Z,69.71
2022-07-27T00:56:00.678Z,69.79
2022-07-27T00:58:20.371Z,70.71
2022-07-27T00:59:23.046Z,70.46
2022-07-27T01:00:27.454Z,70.88
2022-07-27T01:01:30.822Z,71.08
2022-07-27T01:02:33.746Z,71.03
2022-07-27T01:03:36.566Z,71.37
2022-07-27T01:04:41.058Z,71.62
2022-07-27T01:05:43.918Z,71.81
2022-07-27T01:06:47.232Z,72.00
2022-07-27T01:07:49.920Z,71.91
2022-07-27T01:08:52.686Z,71.91
2022-07-27T01:09:55.269Z,72.13
2022-07-27T01:10:58.576Z,71.86
2022-07-27T01:12:01.266Z,71.71
2022-07-27T01:13:03.974Z,71.68
2022-07-27T01:14:07.747Z,71.57
2022-07-27T01:15:10.808Z,71.36
2022-07-27T01:16:14.048Z,70.94
2022-07-27T01:17:16.727Z,70.95
2022-07-27T01:19:40.103Z,70.14
2022-07-27T01:20:43.035Z,70.31
2022-07-27T01:21:45.716Z,69.98
2022-07-27T01:22:48.540Z,69.74
2022-07-27T01:23:51.230Z,69.55
2022-07-27T01:24:53.806Z,69.38
2022-07-27T01:25:56.390Z,69.25
2022-07-27T01:27:03.073Z,69.31
2022-07-27T01:28:05.687Z,69.12
2022-07-27T01:29:08.488Z,68.79
2022-07-27T01:30:12.804Z,68.70
2022-07-27T01:31:15.458Z,68.90
2022-07-27T01:32:18.185Z,69.03
2022-07-27T01:33:20.989Z,69.17
2022-07-27T01:34:23.583Z,69.48
2022-07-27T01:35:26.170Z,69.83
2022-07-27T01:36:29.163Z,69.98
2022-07-27T01:37:31.843Z,70.23
2022-07-27T01:38:34.661Z,70.63
2022-07-27T01:39:37.244Z,71.10
2022-07-27T01:40:40.100Z,71.32
2022-07-27T01:41:42.899Z,71.78
2022-07-27T01:42:45.578Z,72.33
2022-07-27T01:43:48.335Z,72.45
2022-07-27T01:44:50.993Z,72.69
2022-07-27T01:45:53.709Z,72.71
2022-07-27T01:46:56.995Z,72.56
2022-07-27T01:47:59.592Z,72.58
2022-07-27T01:49:02.440Z,72.65
2022-07-27T01:50:06.189Z,72.49
2022-07-27T01:51:08.877Z,72.55
2022-07-27T01:52:11.557Z,72.45
2022-07-27T01:53:14.304Z,72.07
2022-07-27T01:54:16.897Z,71.99
2022-07-27T01:55:19.585Z,71.96
2022-07-27T01:56:24.166Z,72.00
2022-07-27T01:57:26.915Z,71.96
2022-07-27T01:58:29.482Z,71.75
2022-07-27T01:59:32.272Z,71.82
2022-07-27T02:00:35.299Z,71.87
2022-07-27T02:01:38.056Z,71.79
2022-07-27T02:02:41.166Z,71.78
2022-07-27T02:03:43.851Z,71.64
2022-07-27T02:04:46.443Z,71.56
2022-07-27T02:05:49.259Z,71.30
2022-07-27T02:06:52.123Z,71.01
2022-07-27T02:07:54.771Z,70.71
2022-07-27T02:08:57.332Z,70.61
2022-07-27T02:09:59.903Z,70.61
2022-07-27T02:11:02.732Z,70.45
2022-07-27T02:12:05.805Z,70.36
2022-07-27T02:13:15.372Z,70.21
2022-07-27T02:14:13.029Z,70.35
2022-07-27T02:15:17.890Z,70.58
2022-07-27T02:16:21.984Z,70.58
2022-07-27T02:17:26.518Z,70.55
2022-07-27T02:19:41.996Z,70.35
2022-07-27T02:20:45.729Z,70.07
2022-07-27T02:21:48.499Z,70.16
2022-07-27T02:22:51.235Z,69.98
2022-07-27T02:23:53.906Z,69.96
2022-07-27T02:24:56.468Z,70.02
2022-07-27T02:25:59.044Z,69.99
2022-07-27T02:27:01.846Z,70.16
2022-07-27T02:28:04.836Z,69.86
2022-07-27T02:29:07.752Z,70.00
2022-07-27T02:30:13.018Z,69.68
2022-07-27T02:31:15.628Z,69.47
2022-07-27T02:32:19.106Z,69.17
2022-07-27T02:33:21.760Z,68.72
2022-07-27T02:34:25.529Z,68.94
2022-07-27T02:35:28.496Z,69.28
2022-07-27T02:36:31.268Z,69.16
2022-07-27T02:37:33.953Z,69.24
2022-07-27T02:38:38.572Z,68.47
2022-07-27T02:39:41.363Z,68.53
2022-07-27T02:40:44.351Z,68.31
2022-07-27T02:41:47.126Z,68.26
2022-07-27T02:42:49.919Z,68.20
2022-07-27T02:43:52.499Z,69.01
2022-07-27T02:44:55.070Z,68.63
2022-07-27T02:45:57.902Z,68.72
2022-07-27T02:47:01.068Z,68.74
2022-07-27T02:48:03.983Z,69.11
2022-07-27T02:49:06.861Z,68.83
2022-07-27T02:50:10.340Z,69.02
2022-07-27T02:51:13.014Z,69.26
2022-07-27T02:52:15.597Z,69.12
2022-07-27T02:53:18.292Z,68.83
2022-07-27T02:54:21.458Z,69.08
2022-07-27T02:55:24.165Z,69.00
2022-07-27T02:56:27.239Z,69.54
2022-07-27T02:57:30.026Z,69.30
2022-07-27T02:58:32.693Z,69.67
2022-07-27T02:59:35.367Z,69.81
2022-07-27T03:00:38.063Z,70.08
2022-07-27T03:01:40.803Z,70.23
2022-07-27T03:02:48.562Z,70.65
2022-07-27T03:03:51.386Z,70.81
2022-07-27T03:04:53.963Z,71.08
2022-07-27T03:07:07.325Z,71.38
2022-07-27T03:08:10.016Z,71.40
2022-07-27T03:09:12.946Z,71.33
2022-07-27T03:10:16.726Z,71.29
2022-07-27T03:11:19.464Z,70.14
2022-07-27T03:12:22.131Z,69.81
2022-07-27T03:13:24.796Z,68.85
2022-07-27T03:14:28.005Z,68.77
2022-07-27T03:15:32.560Z,68.95
2022-07-27T03:16:35.310Z,68.76
2022-07-27T03:17:37.975Z,68.63
2022-07-27T03:18:40.809Z,68.69
2022-07-27T03:19:43.489Z,68.70
2022-07-27T03:20:46.582Z,68.38
2022-07-27T03:21:49.305Z,68.54
2022-07-27T03:22:52.081Z,68.65
2022-07-27T03:23:54.966Z,68.76
2022-07-27T03:24:57.670Z,68.85
2022-07-27T03:26:00.354Z,69.00
2022-07-27T03:27:03.319Z,68.60
2022-07-27T03:28:06.022Z,68.30
2022-07-27T03:29:08.974Z,68.04
2022-07-27T03:30:13.163Z,68.13
2022-07-27T03:31:15.812Z,68.19
2022-07-27T03:32:18.558Z,68.42
2022-07-27T03:33:21.247Z,68.57
2022-07-27T03:34:24.737Z,68.62
2022-07-27T03:35:27.452Z,68.84
2022-07-27T03:36:31.338Z,67.78
2022-07-27T03:37:34.284Z,67.09
2022-07-27T03:38:36.994Z,67.26
2022-07-27T03:39:39.571Z,67.87
2022-07-27T03:40:42.333Z,68.25
2022-07-27T03:41:45.006Z,68.39
2022-07-27T03:42:47.792Z,68.51
2022-07-27T03:43:50.587Z,67.51
2022-07-27T03:44:53.259Z,66.71
2022-07-27T03:45:56.471Z,65.92
2022-07-27T03:46:59.505Z,66.58
2022-07-27T03:48:02.243Z,65.83
2022-07-27T03:49:08.338Z,65.82
2022-07-27T03:50:10.197Z,65.51
2022-07-27T03:51:12.997Z,65.38
2022-07-27T03:52:17.796Z,65.49
2022-07-27T03:53:20.055Z,65.16
2022-07-27T03:54:22.633Z,64.67
2022-07-27T03:55:25.231Z,64.48
2022-07-27T03:56:28.109Z,64.39
2022-07-27T03:57:30.780Z,64.14
2022-07-27T03:58:33.682Z,64.75
2022-07-27T03:59:36.298Z,63.62
2022-07-27T04:01:49.952Z,62.62
2022-07-27T04:02:52.941Z,61.76
2022-07-27T04:03:55.779Z,62.24
2022-07-27T04:04:58.507Z,62.60
2022-07-27T04:06:01.228Z,62.38
2022-07-27T04:07:03.802Z,62.38
2022-07-27T04:08:06.377Z,62.14
2022-07-27T04:09:09.301Z,62.37
2022-07-27T04:10:12.779Z,61.65
2022-07-27T04:11:17.708Z,61.76
2022-07-27T04:12:21.372Z,61.20
2022-07-27T04:13:24.093Z,61.21
2022-07-27T04:14:28.084Z,61.08
2022-07-27T04:15:30.791Z,60.72
2022-07-27T04:16:36.282Z,60.18
2022-07-27T04:17:56.076Z,60.86
2022-07-27T04:18:43.004Z,60.06
2022-07-27T04:19:45.701Z,60.20
2022-07-27T04:20:48.499Z,59.36
2022-07-27T04:21:51.291Z,59.23
2022-07-27T04:22:54.760Z,58.88
2022-07-27T04:23:57.538Z,58.23
2022-07-27T04:25:00.540Z,58.01
2022-07-27T04:26:03.429Z,58.37
2022-07-27T04:27:06.002Z,58.30
2022-07-27T04:28:08.776Z,58.10
2022-07-27T04:29:11.745Z,58.00
2022-07-27T04:30:15.650Z,57.60
2022-07-27T04:31:18.444Z,58.10
2022-07-27T04:32:21.192Z,57.63
2022-07-27T04:33:23.785Z,56.82
2022-07-27T04:34:26.373Z,57.49
2022-07-27T04:35:28.935Z,57.30
2022-07-27T04:36:31.852Z,57.39
2022-07-27T04:37:34.961Z,56.94
2022-07-27T04:38:37.626Z,57.26
2022-07-27T04:39:40.213Z,57.00
2022-07-27T04:40:42.992Z,56.63
2022-07-27T04:41:45.670Z,56.95
2022-07-27T04:42:48.752Z,56.66
2022-07-27T04:43:52.722Z,55.77
2022-07-27T04:44:55.296Z,55.71
2022-07-27T04:45:57.875Z,55.79
2022-07-27T04:47:00.855Z,55.71
2022-07-27T04:48:07.594Z,55.63
2022-07-27T04:49:10.485Z,55.82
2022-07-27T04:50:15.397Z,55.47
2022-07-27T04:51:18.072Z,56.03
2022-07-27T04:53:31.206Z,56.46
2022-07-27T04:54:33.798Z,56.18
2022-07-27T04:55:37.070Z,55.92
2022-07-27T04:56:39.861Z,55.46
2022-07-27T04:57:42.570Z,54.88
2022-07-27T04:58:45.135Z,55.95
2022-07-27T04:59:47.911Z,55.31
2022-07-27T05:00:50.885Z,54.84
2022-07-27T05:01:53.729Z,54.29
2022-07-27T05:02:58.289Z,53.79
2022-07-27T05:04:00.998Z,53.26
2022-07-27T05:05:04.521Z,53.95
2022-07-27T05:06:07.419Z,53.78
2022-07-27T05:07:10.237Z,54.11
2022-07-27T05:08:12.828Z,54.03
2022-07-27T05:09:15.652Z,53.87
2022-07-27T05:10:21.998Z,53.52
2022-07-27T05:11:24.689Z,53.93
2022-07-27T05:12:27.273Z,53.77
2022-07-27T05:13:30.004Z,54.18
2022-07-27T05:14:32.676Z,53.68
2022-07-27T05:15:54.814Z,53.28
2022-07-27T05:16:40.204Z,52.93
2022-07-27T05:17:42.887Z,52.70
2022-07-27T05:18:45.443Z,53.05
2022-07-27T05:19:48.444Z,53.02
2022-07-27T05:20:51.550Z,52.69
2022-07-27T05:21:54.441Z,52.54
2022-07-27T05:22:57.422Z,52.37
2022-07-27T05:24:00.107Z,52.49
2022-07-27T05:25:03.073Z,52.11
2022-07-27T05:26:06.165Z,51.64
2022-07-27T05:27:08.745Z,51.55
2022-07-27T05:28:11.606Z,52.07
2022-07-27T05:29:14.847Z,51.55
2022-07-27T05:30:20.046Z,52.33
2022-07-27T05:31:22.807Z,51.46
2022-07-27T05:32:27.368Z,50.89
2022-07-27T05:33:31.105Z,51.11
2022-07-27T05:34:33.796Z,50.46
2022-07-27T05:35:36.404Z,49.93
2022-07-27T05:36:39.179Z,49.97
2022-07-27T05:37:41.854Z,49.59
2022-07-27T05:38:44.551Z,49.78
2022-07-27T05:39:47.339Z,50.47
2022-07-27T05:40:50.233Z,48.99
2022-07-27T05:41:53.026Z,48.64
2022-07-27T05:42:56.113Z,49.54
2022-07-27T05:43:58.814Z,49.11
2022-07-27T05:45:01.627Z,49.74
2022-07-27T05:46:04.524Z,49.56
2022-07-27T05:47:07.605Z,49.05
2022-07-27T05:48:12.109Z,49.16
2022-07-27T05:49:15.317Z,49.28
2022-07-27T05:50:18.799Z,48.34
2022-07-27T05:51:21.469Z,48.21
2022-07-27T05:52:24.166Z,48.02
2022-07-27T05:53:26.760Z,48.03
2022-07-27T05:54:29.535Z,47.82
2022-07-27T05:55:33.654Z,47.77
2022-07-27T05:56:36.564Z,48.01
2022-07-27T05:57:39.489Z,47.63
2022-07-27T05:58:42.393Z,46.93
2022-07-27T05:59:45.065Z,46.67
2022-07-27T06:00:48.066Z,47.04
2022-07-27T06:01:50.875Z,47.32
2022-07-27T06:02:54.687Z,47.04
2022-07-27T06:03:57.443Z,46.98
2022-07-27T06:05:00.156Z,47.05
2022-07-27T06:07:13.983Z,45.54
2022-07-27T06:08:16.736Z,45.97
2022-07-27T06:09:19.448Z,46.43
2022-07-27T06:10:22.978Z,46.23
2022-07-27T06:11:25.674Z,45.72
2022-07-27T06:12:30.202Z,45.59
2022-07-27T06:13:32.975Z,45.97
2022-07-27T06:14:35.715Z,45.98
2022-07-27T06:15:38.373Z,46.19
2022-07-27T06:16:41.415Z,46.52
2022-07-27T06:17:44.327Z,46.14
2022-07-27T06:18:46.906Z,45.62
2022-07-27T06:19:49.878Z,45.25
2022-07-27T06:20:52.782Z,45.58
2022-07-27T06:21:55.465Z,45.36
2022-07-27T06:22:59.025Z,45.71
2022-07-27T06:24:01.708Z,45.83
2022-07-27T06:25:05.286Z,45.60
2022-07-27T06:26:08.793Z,46.18
2022-07-27T06:27:11.537Z,45.29
2022-07-27T06:28:14.143Z,44.80
2022-07-27T06:29:16.903Z,45.01
2022-07-27T06:30:21.419Z,45.40
2022-07-27T06:31:27.607Z,45.08
2022-07-27T06:32:32.115Z,45.59
2022-07-27T06:33:36.524Z,46.23
2022-07-27T06:34:42.469Z,45.53
2022-07-27T06:35:43.946Z,45.24
2022-07-27T06:36:48.266Z,44.60
2022-07-27T06:37:50.947Z,44.11
2022-07-27T06:38:53.672Z,44.30
2022-07-27T06:39:59.334Z,44.94
2022-07-27T06:41:02.311Z,44.69
2022-07-27T06:42:04.992Z,44.08
2022-07-27T06:43:07.693Z,43.87
2022-07-27T06:44:10.370Z,43.52
2022-07-27T06:45:13.027Z,43.61
2022-07-27T06:46:17.927Z,43.74
2022-07-27T06:47:20.653Z,42.96
2022-07-27T06:48:23.651Z,43.53
2022-07-27T06:49:26.410Z,43.07
2022-07-27T06:50:30.725Z,42.63
2022-07-27T06:51:33.808Z,41.88
2022-07-27T06:52:38.420Z,41.81
2022-07-27T06:53:41.194Z,42.12
2022-07-27T06:54:43.777Z,42.41
2022-07-27T06:55:46.563Z,42.54
2022-07-27T06:56:49.365Z,41.75
2022-07-27T06:57:52.068Z,42.04
2022-07-27T06:58:54.655Z,40.89
2022-07-27T06:59:57.265Z,41.83
2022-07-27T07:01:00.395Z,41.68
2022-07-27T07:02:03.947Z,41.66
2022-07-27T07:03:06.912Z,41.29
2022-07-27T07:04:09.760Z,41.57
2022-07-27T07:05:12.502Z,41.65
2022-07-27T07:06:17.191Z,41.44
2022-07-27T07:07:19.932Z,41.25
2022-07-27T07:08:22.628Z,40.82
2022-07-27T07:09:25.295Z,40.64
2022-07-27T07:10:29.819Z,40.58
2022-07-27T07:11:32.507Z,40.84
2022-07-27T07:12:36.650Z,41.14
2022-07-27T07:13:43.238Z,40.62
2022-07-27T07:14:44.915Z,40.20
2022-07-27T07:15:47.667Z,39.83
2022-07-27T07:18:03.576Z,39.63
2022-07-27T07:19:06.884Z,40.35
2022-07-27T07:20:11.032Z,39.70
2022-07-27T07:21:15.435Z,39.49
2022-07-27T07:22:18.168Z,40.02
2022-07-27T07:23:20.925Z,39.35
2022-07-27T07:24:23.590Z,40.51
2022-07-27T07:25:27.522Z,40.75
2022-07-27T07:26:31.446Z,40.72
2022-07-27T07:27:34.745Z,40.71
2022-07-27T07:28:37.441Z,40.37
2022-07-27T07:29:40.192Z,40.49
2022-07-27T07:30:43.603Z,39.71
2022-07-27T07:31:46.521Z,39.58
2022-07-27T07:32:49.360Z,39.44
2022-07-27T07:33:52.234Z,39.68
2022-07-27T07:34:54.904Z,39.34
2022-07-27T07:36:12.588Z,39.96
2022-07-27T07:37:02.499Z,40.20
2022-07-27T07:38:05.176Z,40.04
2022-07-27T07:39:07.942Z,40.34
2022-07-27T07:41:15.882Z,40.86
2022-07-27T07:42:18.547Z,40.04
2022-07-27T07:43:21.526Z,39.87
2022-07-27T07:44:25.122Z,39.40
2022-07-27T07:45:29.014Z,38.86
2022-07-27T07:46:32.426Z,38.76
2022-07-27T07:47:35.230Z,38.46
2022-07-27T07:48:37.943Z,38.57
2022-07-27T07:49:40.822Z,39.04
2022-07-27T07:50:43.769Z,39.35
2022-07-27T07:51:46.555Z,37.12
2022-07-27T07:52:50.447Z,37.94
2022-07-27T07:53:53.210Z,38.30
2022-07-27T07:54:55.909Z,38.81
2022-07-27T07:55:58.644Z,39.86
2022-07-27T07:57:01.839Z,39.71
2022-07-27T07:58:04.533Z,38.31
2022-07-27T07:59:07.224Z,37.94
2022-07-27T08:00:12.829Z,38.25
2022-07-27T08:01:15.600Z,38.33
2022-07-27T08:02:18.459Z,38.50
2022-07-27T08:03:21.513Z,37.66
2022-07-27T08:04:24.420Z,38.28
2022-07-27T08:05:27.228Z,37.65
2022-07-27T08:06:31.039Z,37.60
2022-07-27T08:07:33.803Z,37.47
2022-07-27T08:08:36.494Z,37.06
2022-07-27T08:09:39.078Z,36.93
2022-07-27T08:10:41.872Z,37.59
2022-07-27T08:11:44.657Z,38.12
2022-07-27T08:12:50.050Z,37.62
2022-07-27T08:13:52.975Z,38.44
2022-07-27T08:14:55.554Z,38.12
2022-07-27T08:15:58.390Z,36.93
2022-07-27T08:17:01.551Z,36.62
2022-07-27T08:18:04.836Z,37.23
2022-07-27T08:19:09.513Z,37.74
2022-07-27T08:20:14.029Z,38.09
2022-07-27T08:21:16.883Z,37.02
2022-07-27T08:22:19.717Z,36.18
2022-07-27T08:23:23.121Z,36.60
2022-07-27T08:24:25.998Z,37.17
2022-07-27T08:26:39.448Z,38.95
2022-07-27T08:27:42.138Z,37.95
2022-07-27T08:28:44.813Z,37.21
2022-07-27T08:29:47.999Z,37.79
2022-07-27T08:30:52.891Z,36.26
2022-07-27T08:31:57.167Z,36.50
2022-07-27T08:33:00.902Z,35.51
2022-07-27T08:34:03.774Z,36.37
2022-07-27T08:35:07.505Z,36.39
2022-07-27T08:36:10.912Z,37.26
2022-07-27T08:37:15.793Z,36.52
2022-07-27T08:38:18.191Z,36.36
2022-07-27T08:40:05.794Z,36.07
2022-07-27T08:40:39.757Z,36.49
2022-07-27T08:41:33.726Z,36.53
2022-07-27T08:42:36.408Z,36.52
2022-07-27T08:43:41.503Z,36.21
2022-07-27T08:44:44.362Z,36.04
2022-07-27T08:47:03.841Z,36.23
2022-07-27T08:48:06.812Z,36.12
2022-07-27T08:49:09.750Z,36.50
2022-07-27T08:50:14.874Z,35.89
2022-07-27T08:51:17.488Z,35.50
2022-07-27T08:52:20.172Z,35.20
2022-07-27T08:53:22.853Z,35.65
2022-07-27T08:54:25.461Z,36.17
2022-07-27T08:55:28.841Z,36.79
2022-07-27T08:56:32.436Z,36.27
2022-07-27T08:57:35.113Z,36.27
2022-07-27T08:58:37.900Z,36.91
2022-07-27T08:59:40.564Z,35.98
2022-07-27T09:00:47.194Z,35.83
2022-07-27T09:01:50.859Z,36.73
2022-07-27T09:02:53.857Z,36.32
2022-07-27T09:03:56.826Z,35.17
2022-07-27T09:04:59.616Z,35.66
2022-07-27T09:06:02.394Z,35.08
2022-07-27T09:07:05.080Z,34.30
2022-07-27T09:09:27.152Z,34.17
2022-07-27T09:10:32.921Z,34.86
2022-07-27T09:11:35.664Z,34.72
2022-07-27T09:12:38.276Z,35.27
2022-07-27T09:13:41.788Z,34.66
2022-07-27T09:14:47.551Z,34.49
2022-07-27T09:18:30.631Z,33.65
2022-07-27T09:19:37.234Z,34.31
2022-07-27T09:20:40.347Z,34.07
2022-07-27T09:21:43.053Z,33.99
2022-07-27T09:22:50.641Z,34.27
2022-07-27T09:26:34.156Z,34.94
2022-07-27T09:27:37.211Z,35.49
2022-07-27T09:28:40.107Z,35.17
2022-07-27T09:29:42.787Z,35.27
2022-07-27T09:30:45.995Z,35.49
2022-07-27T09:31:50.358Z,35.37
2022-07-27T09:34:11.627Z,36.72
2022-07-27T09:35:19.524Z,36.27
2022-07-27T09:36:24.158Z,36.84
2022-07-27T09:37:27.284Z,36.87
2022-07-27T09:38:29.972Z,37.22
2022-07-27T09:39:32.750Z,36.64
2022-07-27T09:40:36.030Z,36.48
2022-07-27T09:41:53.614Z,36.55
2022-07-27T09:45:55.464Z,37.73
2022-07-27T09:46:58.406Z,37.78
2022-07-27T09:48:14.585Z,38.03
2022-07-27T09:49:29.029Z,37.76
2022-07-27T09:50:35.787Z,36.55
2022-07-27T09:51:59.569Z,35.99
2022-07-27T09:52:49.250Z,35.93
2022-07-27T09:53:52.748Z,36.41
2022-07-27T09:56:15.223Z,35.69
2022-07-27T09:57:18.041Z,37.17
2022-07-27T09:58:20.716Z,36.45
2022-07-27T09:59:23.414Z,36.53
2022-07-27T10:00:29.046Z,36.15
2022-07-27T10:01:33.329Z,36.18
2022-07-27T10:02:37.362Z,36.45
2022-07-27T10:03:40.972Z,34.40
2022-07-27T10:04:43.744Z,34.82
2022-07-27T10:05:46.922Z,35.02
2022-07-27T10:07:10.697Z,35.01
2022-07-27T10:07:54.824Z,35.13
2022-07-27T10:08:58.297Z,35.69
2022-07-27T10:10:01.634Z,35.56
2022-07-27T10:11:05.059Z,35.95
2022-07-27T10:12:10.254Z,35.97
2022-07-27T10:13:12.945Z,35.71
2022-07-27T10:14:16.066Z,35.93
2022-07-27T10:15:19.050Z,35.54
2022-07-27T10:16:24.486Z,34.51
2022-07-27T10:17:27.274Z,34.01
2022-07-27T10:18:43.845Z,34.93
2022-07-27T10:19:47.817Z,34.75
2022-07-27T10:20:50.588Z,34.53
2022-07-27T10:21:53.290Z,34.43
2022-07-27T10:22:57.366Z,34.69
2022-07-27T10:24:05.731Z,35.69
2022-07-27T10:25:08.915Z,35.30
2022-07-27T10:27:33.859Z,34.72
2022-07-27T10:28:48.202Z,33.80
2022-07-27T10:29:50.911Z,33.98
2022-07-27T10:30:54.705Z,34.94
2022-07-27T10:31:59.396Z,35.13
2022-07-27T10:33:16.230Z,35.26
2022-07-27T10:34:38.369Z,35.24
2022-07-27T10:35:41.225Z,34.44
2022-07-27T10:36:47.416Z,33.72
2022-07-27T10:39:15.453Z,34.14
2022-07-27T10:40:19.194Z,34.14
2022-07-27T10:41:26.720Z,34.67
2022-07-27T10:42:29.844Z,34.27
2022-07-27T10:43:32.889Z,33.59
2022-07-27T10:44:35.554Z,34.60
2022-07-27T10:46:53.866Z,34.47
2022-07-27T10:47:56.714Z,34.69
2022-07-27T10:49:03.164Z,34.73
2022-07-27T10:50:18.906Z,34.66
2022-07-27T10:51:35.638Z,35.62
2022-07-27T10:54:16.039Z,35.39
2022-07-27T10:55:13.461Z,34.76
2022-07-27T10:56:17.400Z,35.44
2022-07-27T10:57:26.653Z,35.48
2022-07-27T10:58:34.311Z,34.90
2022-07-27T11:00:08.494Z,35.38
2022-07-27T11:00:54.532Z,34.75
2022-07-27T11:01:56.321Z,35.06
2022-07-27T11:02:59.171Z,34.99
2022-07-27T11:04:08.744Z,34.84
2022-07-27T11:05:32.785Z,35.04
2022-07-27T11:06:33.090Z,35.27
2022-07-27T11:07:42.262Z,35.60
2022-07-27T11:08:47.022Z,36.02
2022-07-27T11:10:48.408Z,35.71
2022-07-27T11:11:51.308Z,35.31
2022-07-27T11:12:53.965Z,35.35
2022-07-27T11:13:57.758Z,35.83
2022-07-27T11:15:00.455Z,35.91
2022-07-27T11:16:23.438Z,35.72
2022-07-27T11:17:49.447Z,35.97
2022-07-27T11:18:28.337Z,35.83
2022-07-27T11:19:31.269Z,36.01
2022-07-27T11:20:35.763Z,36.26
2022-07-27T11:21:38.546Z,35.75
2022-07-27T11:25:00.161Z,36.48
2022-07-27T11:26:02.963Z,36.18
2022-07-27T11:27:17.031Z,36.51
2022-07-27T11:28:10.540Z,36.22
2022-07-27T11:29:15.406Z,36.28
2022-07-27T11:30:23.894Z,37.40
2022-07-27T11:31:52.697Z,37.56
2022-07-27T11:32:34.576Z,37.83
2022-07-27T11:33:38.019Z,38.34
2022-07-27T11:34:40.774Z,38.72
2022-07-27T11:35:53.581Z,38.54
2022-07-27T11:36:56.403Z,38.98
2022-07-27T11:38:00.510Z,39.08
2022-07-27T11:39:03.834Z,39.82
2022-07-27T11:40:48.105Z,40.32
2022-07-27T11:41:48.047Z,42.08
2022-07-27T11:42:39.191Z,42.87
2022-07-27T11:43:45.648Z,43.59
2022-07-27T11:44:47.145Z,44.05
2022-07-27T11:45:50.019Z,44.18
2022-07-27T11:46:56.330Z,44.67
2022-07-27T11:47:58.718Z,44.37
2022-07-27T11:49:07.130Z,44.25
2022-07-27T11:50:09.938Z,45.12
2022-07-27T11:51:15.366Z,45.83
2022-07-27T11:52:18.218Z,46.28
2022-07-27T11:53:20.943Z,45.87
2022-07-27T11:54:25.453Z,45.74
2022-07-27T11:55:28.157Z,46.04
2022-07-27T11:57:57.395Z,46.67
2022-07-27T11:59:06.084Z,45.97
2022-07-27T12:00:10.918Z,46.11
2022-07-27T12:01:28.499Z,46.26
2022-07-27T12:02:31.301Z,45.98
2022-07-27T12:03:47.182Z,45.95
2022-07-27T12:04:40.515Z,46.14
2022-07-27T12:05:52.178Z,46.36
2022-07-27T12:06:56.694Z,46.19
2022-07-27T12:07:59.424Z,46.62
2022-07-27T12:09:03.193Z,46.20
2022-07-27T12:10:06.922Z,45.96
2022-07-27T12:11:09.687Z,45.98
2022-07-27T12:13:33.852Z,46.34
2022-07-27T12:14:39.554Z,46.56
2022-07-27T12:15:46.381Z,46.29
2022-07-27T12:16:47.335Z,46.00
2022-07-27T12:17:56.631Z,45.60
2022-07-27T12:18:59.534Z,45.94
2022-07-27T12:20:08.291Z,46.06
2022-07-27T12:21:17.974Z,46.16
2022-07-27T12:22:29.947Z,46.32
2022-07-27T12:23:32.657Z,46.21
2022-07-27T12:24:37.541Z,46.11
2022-07-27T12:25:40.267Z,46.48
2022-07-27T12:26:43.258Z,45.90
2022-07-27T12:28:00.208Z,45.55
2022-07-27T12:29:07.711Z,44.98
2022-07-27T12:30:12.561Z,45.35
2022-07-27T12:31:16.398Z,45.26
2022-07-27T12:32:19.554Z,44.91
2022-07-27T12:33:28.742Z,45.09
2022-07-27T12:34:35.600Z,44.91
2022-07-27T12:36:55.155Z,43.61
2022-07-27T12:38:03.837Z,44.13
2022-07-27T12:39:06.556Z,44.25
2022-07-27T12:40:17.465Z,44.53
2022-07-27T12:41:30.797Z,44.86
2022-07-27T12:42:34.536Z,44.98
2022-07-27T12:43:37.639Z,45.09
2022-07-27T12:44:42.051Z,45.35
2022-07-27T12:45:45.305Z,45.38
2022-07-27T12:46:57.637Z,45.26
2022-07-27T12:49:24.986Z,45.05
2022-07-27T12:50:29.688Z,44.70
2022-07-27T12:52:48.400Z,44.86
2022-07-27T12:53:52.015Z,44.98
2022-07-27T12:54:54.990Z,44.61
2022-07-27T12:56:00.382Z,44.94
2022-07-27T12:57:03.552Z,44.93
2022-07-27T12:58:10.563Z,45.01
2022-07-27T12:59:13.730Z,45.25
2022-07-27T13:00:18.403Z,45.06
2022-07-27T13:01:21.140Z,45.07
2022-07-27T13:02:23.896Z,45.57
2022-07-27T13:03:27.271Z,45.27
2022-07-27T13:04:29.958Z,45.35
2022-07-27T13:05:32.965Z,45.30
2022-07-27T13:06:36.210Z,45.38
2022-07-27T13:07:39.799Z,45.51
2022-07-27T13:08:42.548Z,45.04
2022-07-27T13:10:03.562Z,45.25
2022-07-27T13:10:50.165Z,45.55
2022-07-27T13:11:56.995Z,45.68
2022-07-27T13:12:57.462Z,45.34
2022-07-27T13:14:00.081Z,45.36
2022-07-27T13:15:07.095Z,45.20
2022-07-27T13:16:10.782Z,45.44
2022-07-27T13:17:13.685Z,45.21
2022-07-27T13:18:21.254Z,45.25
2022-07-27T13:19:21.064Z,45.36
2022-07-27T13:21:34.972Z,45.54
2022-07-27T13:22:39.267Z,45.88
2022-07-27T13:23:42.067Z,45.90
2022-07-27T13:24:44.646Z,45.91
2022-07-27T13:25:48.441Z,46.27
2022-07-27T13:26:51.331Z,46.37
2022-07-27T13:27:54.098Z,46.69
2022-07-27T13:28:56.893Z,46.85
2022-07-27T13:29:59.662Z,47.17
2022-07-27T13:31:02.643Z,46.62
2022-07-27T13:32:06.369Z,45.82
2022-07-27T13:33:09.135Z,46.29
2022-07-27T13:34:11.821Z,46.04
2022-07-27T13:35:14.809Z,46.05
2022-07-27T13:36:18.125Z,45.95
2022-07-27T13:37:20.863Z,46.27
2022-07-27T13:38:23.541Z,46.36
2022-07-27T13:39:26.338Z,45.68
2022-07-27T13:40:30.582Z,46.13
2022-07-27T13:41:33.562Z,46.15
2022-07-27T13:42:36.357Z,45.99
2022-07-27T13:43:39.145Z,46.13
2022-07-27T13:45:03.879Z,46.29
2022-07-27T13:46:57.318Z,47.27
2022-07-27T13:48:00.038Z,47.36
2022-07-27T13:49:02.760Z,47.79
2022-07-27T13:50:06.896Z,48.37
2022-07-27T13:51:09.662Z,49.30
2022-07-27T13:52:12.331Z,49.30
2022-07-27T13:53:15.762Z,49.74
2022-07-27T13:54:18.718Z,50.11
2022-07-27T13:55:24.857Z,50.91
2022-07-27T13:56:26.209Z,51.28
2022-07-27T13:57:28.998Z,51.90
2022-07-27T13:58:31.693Z,52.15
2022-07-27T13:59:34.407Z,52.48
2022-07-27T14:00:37.643Z,52.28
2022-07-27T14:01:40.972Z,52.40
2022-07-27T14:02:45.331Z,52.13
2022-07-27T14:03:48.463Z,52.36
2022-07-27T14:04:51.346Z,52.64
2022-07-27T14:05:54.030Z,52.87
2022-07-27T14:06:58.182Z,52.90
2022-07-27T14:08:00.882Z,53.08
2022-07-27T14:09:04.471Z,53.44
2022-07-27T14:10:08.295Z,53.52
2022-07-27T14:11:10.970Z,54.08
2022-07-27T14:12:13.749Z,53.76
2022-07-27T14:13:16.563Z,54.18
2022-07-27T14:14:21.772Z,54.51
2022-07-27T14:15:24.041Z,55.03
2022-07-27T14:16:27.408Z,55.38
2022-07-27T14:17:30.227Z,55.75
2022-07-27T14:18:33.015Z,56.78
2022-07-27T14:19:36.071Z,57.18
2022-07-27T14:20:40.074Z,57.64
2022-07-27T14:21:43.067Z,58.09
2022-07-27T14:22:45.773Z,58.61
2022-07-27T14:23:48.567Z,58.98
2022-07-27T14:24:51.227Z,59.13